PWSweather.com
Personal Weather Stations
Station Observations
TARRYHILL
Tarrytown, NY 10591

Tarrytown, NY 10591

Lat: 41.05185, Lon: -73.85296

Elevation: 341

Station Type: Davis Vantage Vue

www.tarrytownnyweather.com

High Low Average
Temperature 86.8°F30.4°C 72.2°F22.3°C 78.3°F25.7°C
Dew Point 74.1°F23.4°C 71.2°F21.8°C 72.5°F22.5°C
Winds 4.4 mph 7.1 kmh Calm Calm 1.0 mph SSW1.6 kmh SSW
Wind Gusts 8.0 mph12.9 kmh -- 2.0 mph3.2 kmh
Humidity 97% 62% 83%
Pressure 30.02 in1016.6 mb 29.92 in1013.2 mb -
Precipitation 0.00 in0.0 mm - -
Hour Temp Dew Point Humidity Winds Wind Gusts Pressure Precip Precip Rate Daily Precip Total
12:00 AM 74.0°F23.3°C 72.8°F22.7°C 96% 0.8 mph SSW1.3 kmh SSW 2.0 mph3.2 kmh 30.00 in1015.9 mb 0.00 in0.0 mm 0.00 in/hr0.0 mm/hr 0.00 in0.0 mm
12:10 AM 74.0°F23.3°C 72.8°F22.7°C 96% 0.6 mph S1.0 kmh S 2.0 mph3.2 kmh 30.00 in1015.9 mb 0.00 in0.0 mm 0.00 in/hr0.0 mm/hr 0.00 in0.0 mm
12:20 AM 73.9°F23.3°C 72.7°F22.6°C 96% 0.8 mph SSW1.3 kmh SSW 3.0 mph4.8 kmh 30.00 in1015.9 mb 0.00 in0.0 mm 0.00 in/hr0.0 mm/hr 0.00 in0.0 mm
12:30 AM 73.9°F23.3°C 72.7°F22.6°C 96% 1.3 mph SE2.1 kmh SE 5.0 mph8.0 kmh 30.00 in1015.9 mb 0.00 in0.0 mm 0.00 in/hr0.0 mm/hr 0.00 in0.0 mm
12:40 AM 74.0°F23.3°C 72.8°F22.7°C 96% 2.2 mph SW3.5 kmh SW 5.0 mph8.0 kmh 30.01 in1016.3 mb 0.00 in0.0 mm 0.00 in/hr0.0 mm/hr 0.00 in0.0 mm
12:50 AM 74.0°F23.3°C 72.5°F22.5°C 95% 1.3 mph SW2.1 kmh SW 2.0 mph3.2 kmh 30.00 in1015.9 mb 0.00 in0.0 mm 0.00 in/hr0.0 mm/hr 0.00 in0.0 mm
01:00 AM 74.0°F23.3°C 72.5°F22.5°C 95% 1.5 mph SW2.4 kmh SW 3.0 mph4.8 kmh 30.00 in1015.9 mb 0.00 in0.0 mm 0.00 in/hr0.0 mm/hr 0.00 in0.0 mm
01:10 AM 73.9°F23.3°C 72.4°F22.4°C 95% 1.3 mph SSE2.1 kmh SSE 4.0 mph6.4 kmh 30.00 in1015.9 mb 0.00 in0.0 mm 0.00 in/hr0.0 mm/hr 0.00 in0.0 mm
01:20 AM 73.8°F23.2°C 72.3°F22.4°C 95% 2.1 mph WSW3.4 kmh WSW 4.0 mph6.4 kmh 30.00 in1015.9 mb 0.00 in0.0 mm 0.00 in/hr0.0 mm/hr 0.00 in0.0 mm
01:30 AM 73.8°F23.2°C 72.6°F22.6°C 96% 0.4 mph SW0.6 kmh SW 2.0 mph3.2 kmh 30.00 in1015.9 mb 0.00 in0.0 mm 0.00 in/hr0.0 mm/hr 0.00 in0.0 mm
01:40 AM 73.7°F23.2°C 72.5°F22.5°C 96% 1.8 mph SW2.9 kmh SW 4.0 mph6.4 kmh 30.00 in1015.9 mb 0.00 in0.0 mm 0.00 in/hr0.0 mm/hr 0.00 in0.0 mm
01:50 AM 73.7°F23.2°C 72.5°F22.5°C 96% 0.6 mph SW1.0 kmh SW 1.0 mph1.6 kmh 30.00 in1015.9 mb 0.00 in0.0 mm 0.00 in/hr0.0 mm/hr 0.00 in0.0 mm
02:00 AM 73.7°F23.2°C 72.5°F22.5°C 96% 1.4 mph SW2.3 kmh SW 2.0 mph3.2 kmh 29.99 in1015.6 mb 0.00 in0.0 mm 0.00 in/hr0.0 mm/hr 0.00 in0.0 mm
02:10 AM 73.7°F23.2°C 72.5°F22.5°C 96% 2.5 mph SW4.0 kmh SW 4.0 mph6.4 kmh 29.99 in1015.6 mb 0.00 in0.0 mm 0.00 in/hr0.0 mm/hr 0.00 in0.0 mm
02:20 AM 73.7°F23.2°C 72.5°F22.5°C 96% 2.8 mph SW4.5 kmh SW 5.0 mph8.0 kmh 29.99 in1015.6 mb 0.00 in0.0 mm 0.00 in/hr0.0 mm/hr 0.00 in0.0 mm
02:30 AM 73.7°F23.2°C 72.5°F22.5°C 96% 4.0 mph SSW6.4 kmh SSW 8.0 mph12.9 kmh 29.99 in1015.6 mb 0.00 in0.0 mm 0.00 in/hr0.0 mm/hr 0.00 in0.0 mm
02:40 AM 73.7°F23.2°C 72.5°F22.5°C 96% 2.6 mph SSE4.2 kmh SSE 5.0 mph8.0 kmh 29.99 in1015.6 mb 0.00 in0.0 mm 0.00 in/hr0.0 mm/hr 0.00 in0.0 mm
02:50 AM 73.7°F23.2°C 72.4°F22.4°C 96% 1.4 mph SW2.3 kmh SW 3.0 mph4.8 kmh 29.99 in1015.6 mb 0.00 in0.0 mm 0.00 in/hr0.0 mm/hr 0.00 in0.0 mm
03:00 AM 73.5°F23.1°C 72.3°F22.4°C 96% 3.1 mph SSW5.0 kmh SSW 5.0 mph8.0 kmh 29.99 in1015.6 mb 0.00 in0.0 mm 0.00 in/hr0.0 mm/hr 0.00 in0.0 mm
03:10 AM 73.4°F23.0°C 72.2°F22.3°C 96% 0.8 mph S1.3 kmh S 3.0 mph4.8 kmh 29.99 in1015.6 mb 0.00 in0.0 mm 0.00 in/hr0.0 mm/hr 0.00 in0.0 mm
03:20 AM 73.3°F22.9°C 72.1°F22.3°C 96% 0.5 mph SW0.8 kmh SW 2.0 mph3.2 kmh 29.99 in1015.6 mb 0.00 in0.0 mm 0.00 in/hr0.0 mm/hr 0.00 in0.0 mm
03:30 AM 73.2°F22.9°C 72.0°F22.2°C 96% 2.3 mph SSE3.7 kmh SSE 6.0 mph9.7 kmh 29.99 in1015.6 mb 0.00 in0.0 mm 0.00 in/hr0.0 mm/hr 0.00 in0.0 mm
03:40 AM 73.1°F22.8°C 71.9°F22.2°C 96% 1.3 mph WSW2.1 kmh WSW 5.0 mph8.0 kmh 29.99 in1015.6 mb 0.00 in0.0 mm 0.00 in/hr0.0 mm/hr 0.00 in0.0 mm
03:50 AM 73.0°F22.8°C 71.8°F22.1°C 96% 0.4 mph SSE0.6 kmh SSE 1.0 mph1.6 kmh 29.99 in1015.6 mb 0.00 in0.0 mm 0.00 in/hr0.0 mm/hr 0.00 in0.0 mm
04:00 AM 72.9°F22.7°C 71.7°F22.1°C 96% 0.1 mph SW0.2 kmh SW -- 29.99 in1015.6 mb 0.00 in0.0 mm 0.00 in/hr0.0 mm/hr 0.00 in0.0 mm
04:10 AM 72.9°F22.7°C 71.7°F22.1°C 96% 1.5 mph SSW2.4 kmh SSW 3.0 mph4.8 kmh 29.99 in1015.6 mb 0.00 in0.0 mm 0.00 in/hr0.0 mm/hr 0.00 in0.0 mm
04:20 AM 72.8°F22.7°C 71.6°F22.0°C 96% 1.8 mph WSW2.9 kmh WSW 5.0 mph8.0 kmh 29.99 in1015.6 mb 0.00 in0.0 mm 0.00 in/hr0.0 mm/hr 0.00 in0.0 mm
04:30 AM 72.8°F22.7°C 71.6°F22.0°C 96% 0.3 mph S0.5 kmh S 1.0 mph1.6 kmh 30.00 in1015.9 mb 0.00 in0.0 mm 0.00 in/hr0.0 mm/hr 0.00 in0.0 mm
04:40 AM 72.8°F22.7°C 71.6°F22.0°C 96% 0.9 mph SW1.4 kmh SW 2.0 mph3.2 kmh 30.00 in1015.9 mb 0.00 in0.0 mm 0.00 in/hr0.0 mm/hr 0.00 in0.0 mm
04:50 AM 72.8°F22.7°C 71.6°F22.0°C 96% 0.7 mph SSW1.1 kmh SSW 2.0 mph3.2 kmh 29.99 in1015.6 mb 0.00 in0.0 mm 0.00 in/hr0.0 mm/hr 0.00 in0.0 mm
05:00 AM 72.7°F22.6°C 71.5°F21.9°C 96% 0.7 mph SW1.1 kmh SW 2.0 mph3.2 kmh 29.99 in1015.6 mb 0.00 in0.0 mm 0.00 in/hr0.0 mm/hr 0.00 in0.0 mm
05:10 AM 72.7°F22.6°C 71.5°F21.9°C 96% 0.4 mph WSW0.6 kmh WSW 2.0 mph3.2 kmh 30.00 in1015.9 mb 0.00 in0.0 mm 0.00 in/hr0.0 mm/hr 0.00 in0.0 mm
05:20 AM 72.7°F22.6°C 71.5°F21.9°C 96% 0.1 mph SE0.2 kmh SE 1.0 mph1.6 kmh 30.00 in1015.9 mb 0.00 in0.0 mm 0.00 in/hr0.0 mm/hr 0.00 in0.0 mm
05:30 AM 72.7°F22.6°C 71.5°F21.9°C 96% Calm Calm -- 30.01 in1016.3 mb 0.00 in0.0 mm 0.00 in/hr0.0 mm/hr 0.00 in0.0 mm
05:40 AM 72.7°F22.6°C 71.5°F21.9°C 96% Calm Calm -- 30.01 in1016.3 mb 0.00 in0.0 mm 0.00 in/hr0.0 mm/hr 0.00 in0.0 mm
05:50 AM 72.8°F22.7°C 71.6°F22.0°C 96% Calm Calm -- 30.01 in1016.3 mb 0.00 in0.0 mm 0.00 in/hr0.0 mm/hr 0.00 in0.0 mm
06:00 AM 72.7°F22.6°C 71.5°F21.9°C 96% Calm Calm -- 30.01 in1016.3 mb 0.00 in0.0 mm 0.00 in/hr0.0 mm/hr 0.00 in0.0 mm
06:10 AM 72.6°F22.6°C 71.4°F21.9°C 96% Calm Calm 1.0 mph1.6 kmh 30.01 in1016.3 mb 0.00 in0.0 mm 0.00 in/hr0.0 mm/hr 0.00 in0.0 mm
06:20 AM 72.5°F22.5°C 71.6°F22.0°C 97% Calm Calm -- 30.01 in1016.3 mb 0.00 in0.0 mm 0.00 in/hr0.0 mm/hr 0.00 in0.0 mm
06:30 AM 72.4°F22.4°C 71.5°F21.9°C 97% Calm Calm -- 30.01 in1016.3 mb 0.00 in0.0 mm 0.00 in/hr0.0 mm/hr 0.00 in0.0 mm
06:40 AM 72.3°F22.4°C 71.4°F21.9°C 97% Calm Calm -- 30.02 in1016.6 mb 0.00 in0.0 mm 0.00 in/hr0.0 mm/hr 0.00 in0.0 mm
06:50 AM 72.3°F22.4°C 71.4°F21.9°C 97% Calm Calm -- 30.01 in1016.3 mb 0.00 in0.0 mm 0.00 in/hr0.0 mm/hr 0.00 in0.0 mm
07:00 AM 72.2°F22.3°C 71.3°F21.8°C 97% Calm Calm -- 30.02 in1016.6 mb 0.00 in0.0 mm 0.00 in/hr0.0 mm/hr 0.00 in0.0 mm
07:10 AM 72.2°F22.3°C 71.3°F21.8°C 97% Calm Calm -- 30.02 in1016.6 mb 0.00 in0.0 mm 0.00 in/hr0.0 mm/hr 0.00 in0.0 mm
07:20 AM 72.3°F22.4°C 71.4°F21.9°C 97% Calm Calm -- 30.01 in1016.3 mb 0.00 in0.0 mm 0.00 in/hr0.0 mm/hr 0.00 in0.0 mm
07:30 AM 72.4°F22.4°C 71.5°F21.9°C 97% Calm Calm -- 30.01 in1016.3 mb 0.00 in0.0 mm 0.00 in/hr0.0 mm/hr 0.00 in0.0 mm
07:40 AM 72.7°F22.6°C 71.8°F22.1°C 97% Calm Calm -- 30.01 in1016.3 mb 0.00 in0.0 mm 0.00 in/hr0.0 mm/hr 0.00 in0.0 mm
07:50 AM 72.8°F22.7°C 71.9°F22.2°C 97% Calm Calm -- 30.01 in1016.3 mb 0.00 in0.0 mm 0.00 in/hr0.0 mm/hr 0.00 in0.0 mm
08:00 AM 73.0°F22.8°C 72.1°F22.3°C 97% 0.1 mph SW0.2 kmh SW -- 30.02 in1016.6 mb 0.00 in0.0 mm 0.00 in/hr0.0 mm/hr 0.00 in0.0 mm
08:10 AM 73.2°F22.9°C 72.3°F22.4°C 97% 1.4 mph SW2.3 kmh SW 4.0 mph6.4 kmh 30.02 in1016.6 mb 0.00 in0.0 mm 0.00 in/hr0.0 mm/hr 0.00 in0.0 mm
08:20 AM 73.5°F23.1°C 72.3°F22.4°C 96% Calm Calm -- 30.01 in1016.3 mb 0.00 in0.0 mm 0.00 in/hr0.0 mm/hr 0.00 in0.0 mm
08:30 AM 73.8°F23.2°C 72.6°F22.6°C 96% 0.7 mph W1.1 kmh W 3.0 mph4.8 kmh 30.01 in1016.3 mb 0.00 in0.0 mm 0.00 in/hr0.0 mm/hr 0.00 in0.0 mm
08:40 AM 74.0°F23.3°C 72.4°F22.4°C 95% 0.5 mph S0.8 kmh S -- 30.01 in1016.3 mb 0.00 in0.0 mm 0.00 in/hr0.0 mm/hr 0.00 in0.0 mm
08:50 AM 74.5°F23.6°C 72.7°F22.6°C 94% 0.6 mph SSW1.0 kmh SSW 2.0 mph3.2 kmh 30.01 in1016.3 mb 0.00 in0.0 mm 0.00 in/hr0.0 mm/hr 0.00 in0.0 mm
09:00 AM 75.2°F24.0°C 73.1°F22.8°C 93% 0.4 mph SSE0.6 kmh SSE 2.0 mph3.2 kmh 30.01 in1016.3 mb 0.00 in0.0 mm 0.00 in/hr0.0 mm/hr 0.00 in0.0 mm
09:10 AM 75.8°F24.3°C 73.4°F23.0°C 92% 2.2 mph S3.5 kmh S 5.0 mph8.0 kmh 30.01 in1016.3 mb 0.00 in0.0 mm 0.00 in/hr0.0 mm/hr 0.00 in0.0 mm
09:20 AM 76.2°F24.6°C 73.1°F22.8°C 90% 1.2 mph NW1.9 kmh NW 3.0 mph4.8 kmh 30.01 in1016.3 mb 0.00 in0.0 mm 0.00 in/hr0.0 mm/hr 0.00 in0.0 mm
09:30 AM 76.8°F24.9°C 73.3°F22.9°C 89% 0.5 mph S0.8 kmh S 1.0 mph1.6 kmh 30.00 in1015.9 mb 0.00 in0.0 mm 0.00 in/hr0.0 mm/hr 0.00 in0.0 mm
09:40 AM 77.6°F25.3°C 73.1°F22.8°C 86% 0.5 mph ENE0.8 kmh ENE -- 30.00 in1015.9 mb 0.00 in0.0 mm 0.00 in/hr0.0 mm/hr 0.00 in0.0 mm
09:50 AM 78.4°F25.8°C 72.8°F22.7°C 83% 2.4 mph SW3.9 kmh SW 4.0 mph6.4 kmh 30.00 in1015.9 mb 0.00 in0.0 mm 0.00 in/hr0.0 mm/hr 0.00 in0.0 mm
10:00 AM 78.9°F26.1°C 72.6°F22.6°C 81% 1.8 mph SW2.9 kmh SW 3.0 mph4.8 kmh 30.00 in1015.9 mb 0.00 in0.0 mm 0.00 in/hr0.0 mm/hr 0.00 in0.0 mm
10:10 AM 79.1°F26.2°C 72.4°F22.4°C 80% 0.7 mph S1.1 kmh S 2.0 mph3.2 kmh 30.00 in1015.9 mb 0.00 in0.0 mm 0.00 in/hr0.0 mm/hr 0.00 in0.0 mm
10:20 AM 79.6°F26.4°C 72.9°F22.7°C 80% 1.1 mph WNW1.8 kmh WNW 2.0 mph3.2 kmh 30.00 in1015.9 mb 0.00 in0.0 mm 0.00 in/hr0.0 mm/hr 0.00 in0.0 mm
10:30 AM 80.5°F26.9°C 73.4°F23.0°C 79% 0.1 mph SW0.2 kmh SW 2.0 mph3.2 kmh 30.00 in1015.9 mb 0.00 in0.0 mm 0.00 in/hr0.0 mm/hr 0.00 in0.0 mm
10:40 AM 82.3°F27.9°C 73.6°F23.1°C 75% 0.4 mph WSW0.6 kmh WSW -- 30.00 in1015.9 mb 0.00 in0.0 mm 0.00 in/hr0.0 mm/hr 0.00 in0.0 mm
10:50 AM 82.5°F28.1°C 73.8°F23.2°C 75% 0.7 mph SE1.1 kmh SE 1.0 mph1.6 kmh 30.00 in1015.9 mb 0.00 in0.0 mm 0.00 in/hr0.0 mm/hr 0.00 in0.0 mm
11:00 AM 83.4°F28.6°C 72.6°F22.6°C 70% 2.1 mph SSW3.4 kmh SSW 4.0 mph6.4 kmh 30.00 in1015.9 mb 0.00 in0.0 mm 0.00 in/hr0.0 mm/hr 0.00 in0.0 mm
11:10 AM 83.9°F28.8°C 73.5°F23.1°C 71% 2.4 mph SSE3.9 kmh SSE 5.0 mph8.0 kmh 30.00 in1015.9 mb 0.00 in0.0 mm 0.00 in/hr0.0 mm/hr 0.00 in0.0 mm
11:20 AM 84.2°F29.0°C 73.4°F23.0°C 70% 1.0 mph S1.6 kmh S 3.0 mph4.8 kmh 30.00 in1015.9 mb 0.00 in0.0 mm 0.00 in/hr0.0 mm/hr 0.00 in0.0 mm
11:30 AM 83.8°F28.8°C 72.2°F22.3°C 68% 4.2 mph WSW6.8 kmh WSW 6.0 mph9.7 kmh 30.00 in1015.9 mb 0.00 in0.0 mm 0.00 in/hr0.0 mm/hr 0.00 in0.0 mm
11:40 AM 83.4°F28.6°C 72.1°F22.3°C 69% 3.6 mph SSW5.8 kmh SSW 5.0 mph8.0 kmh 30.00 in1015.9 mb 0.00 in0.0 mm 0.00 in/hr0.0 mm/hr 0.00 in0.0 mm
11:50 AM 83.4°F28.6°C 72.6°F22.6°C 70% 2.7 mph E4.3 kmh E 4.0 mph6.4 kmh 29.99 in1015.6 mb 0.00 in0.0 mm 0.00 in/hr0.0 mm/hr 0.00 in0.0 mm
12:00 PM 84.0°F28.9°C 72.3°F22.4°C 68% 3.4 mph SE5.5 kmh SE 6.0 mph9.7 kmh 29.99 in1015.6 mb 0.00 in0.0 mm 0.00 in/hr0.0 mm/hr 0.00 in0.0 mm
12:10 PM 84.2°F29.0°C 72.0°F22.2°C 67% 4.3 mph WSW6.9 kmh WSW 8.0 mph12.9 kmh 29.99 in1015.6 mb 0.00 in0.0 mm 0.00 in/hr0.0 mm/hr 0.00 in0.0 mm
12:20 PM 84.0°F28.9°C 72.3°F22.4°C 68% 3.3 mph SSW5.3 kmh SSW 6.0 mph9.7 kmh 29.99 in1015.6 mb 0.00 in0.0 mm 0.00 in/hr0.0 mm/hr 0.00 in0.0 mm
12:30 PM 84.1°F28.9°C 72.8°F22.7°C 69% 1.9 mph SSW3.1 kmh SSW 5.0 mph8.0 kmh 29.98 in1015.2 mb 0.00 in0.0 mm 0.00 in/hr0.0 mm/hr 0.00 in0.0 mm
12:40 PM 85.1°F29.5°C 72.4°F22.4°C 66% 4.0 mph SW6.4 kmh SW 4.0 mph6.4 kmh 29.98 in1015.2 mb 0.00 in0.0 mm 0.00 in/hr0.0 mm/hr 0.00 in0.0 mm
12:50 PM 84.4°F29.1°C 71.8°F22.1°C 66% 1.4 mph SW2.3 kmh SW 4.0 mph6.4 kmh 29.98 in1015.2 mb 0.00 in0.0 mm 0.00 in/hr0.0 mm/hr 0.00 in0.0 mm
01:00 PM 84.1°F28.9°C 71.5°F21.9°C 66% 2.2 mph SW3.5 kmh SW 7.0 mph11.3 kmh 29.98 in1015.2 mb 0.00 in0.0 mm 0.00 in/hr0.0 mm/hr 0.00 in0.0 mm
01:10 PM 84.2°F29.0°C 71.2°F21.8°C 65% 2.1 mph SSW3.4 kmh SSW 2.0 mph3.2 kmh 29.98 in1015.2 mb 0.00 in0.0 mm 0.00 in/hr0.0 mm/hr 0.00 in0.0 mm
01:20 PM 84.3°F29.1°C 71.7°F22.1°C 66% 1.1 mph SW1.8 kmh SW 4.0 mph6.4 kmh 29.97 in1014.9 mb 0.00 in0.0 mm 0.00 in/hr0.0 mm/hr 0.00 in0.0 mm
01:30 PM 84.5°F29.2°C 71.9°F22.2°C 66% 2.0 mph SW3.2 kmh SW 3.0 mph4.8 kmh 29.97 in1014.9 mb 0.00 in0.0 mm 0.00 in/hr0.0 mm/hr 0.00 in0.0 mm
01:40 PM 84.5°F29.2°C 71.9°F22.2°C 66% 0.7 mph S1.1 kmh S 1.0 mph1.6 kmh 29.96 in1014.6 mb 0.00 in0.0 mm 0.00 in/hr0.0 mm/hr 0.00 in0.0 mm
01:50 PM 84.0°F28.9°C 71.4°F21.9°C 66% 0.5 mph SSE0.8 kmh SSE -- 29.96 in1014.6 mb 0.00 in0.0 mm 0.00 in/hr0.0 mm/hr 0.00 in0.0 mm
02:00 PM 83.5°F28.6°C 71.4°F21.9°C 67% 3.1 mph SSE5.0 kmh SSE 3.0 mph4.8 kmh 29.96 in1014.6 mb 0.00 in0.0 mm 0.00 in/hr0.0 mm/hr 0.00 in0.0 mm
02:10 PM 83.2°F28.4°C 71.5°F21.9°C 68% 1.8 mph S2.9 kmh S 3.0 mph4.8 kmh 29.96 in1014.6 mb 0.00 in0.0 mm 0.00 in/hr0.0 mm/hr 0.00 in0.0 mm
02:20 PM 83.3°F28.5°C 72.1°F22.3°C 69% 0.4 mph SW0.6 kmh SW 1.0 mph1.6 kmh 29.96 in1014.6 mb 0.00 in0.0 mm 0.00 in/hr0.0 mm/hr 0.00 in0.0 mm
02:30 PM 83.9°F28.8°C 72.6°F22.6°C 69% 1.0 mph SW1.6 kmh SW 2.0 mph3.2 kmh 29.96 in1014.6 mb 0.00 in0.0 mm 0.00 in/hr0.0 mm/hr 0.00 in0.0 mm
02:40 PM 85.3°F29.6°C 72.2°F22.3°C 65% 1.6 mph WSW2.6 kmh WSW 3.0 mph4.8 kmh 29.96 in1014.6 mb 0.00 in0.0 mm 0.00 in/hr0.0 mm/hr 0.00 in0.0 mm
02:50 PM 86.0°F30.0°C 72.9°F22.7°C 65% 2.4 mph S3.9 kmh S 5.0 mph8.0 kmh 29.96 in1014.6 mb 0.00 in0.0 mm 0.00 in/hr0.0 mm/hr 0.00 in0.0 mm
03:00 PM 85.2°F29.6°C 72.6°F22.6°C 66% 4.4 mph SW7.1 kmh SW 6.0 mph9.7 kmh 29.95 in1014.2 mb 0.00 in0.0 mm 0.00 in/hr0.0 mm/hr 0.00 in0.0 mm
03:10 PM 84.7°F29.3°C 72.5°F22.5°C 67% 2.5 mph WSW4.0 kmh WSW 4.0 mph6.4 kmh 29.95 in1014.2 mb 0.00 in0.0 mm 0.00 in/hr0.0 mm/hr 0.00 in0.0 mm
03:20 PM 84.7°F29.3°C 72.5°F22.5°C 67% 0.7 mph SW1.1 kmh SW 3.0 mph4.8 kmh 29.95 in1014.2 mb 0.00 in0.0 mm 0.00 in/hr0.0 mm/hr 0.00 in0.0 mm
03:30 PM 84.8°F29.3°C 73.0°F22.8°C 68% 0.6 mph WSW1.0 kmh WSW 2.0 mph3.2 kmh 29.95 in1014.2 mb 0.00 in0.0 mm 0.00 in/hr0.0 mm/hr 0.00 in0.0 mm
03:40 PM 84.8°F29.3°C 72.6°F22.6°C 67% 0.5 mph SW0.8 kmh SW 1.0 mph1.6 kmh 29.95 in1014.2 mb 0.00 in0.0 mm 0.00 in/hr0.0 mm/hr 0.00 in0.0 mm
03:50 PM 84.7°F29.3°C 71.7°F22.1°C 65% 0.2 mph SW0.3 kmh SW 1.0 mph1.6 kmh 29.94 in1013.9 mb 0.00 in0.0 mm 0.00 in/hr0.0 mm/hr 0.00 in0.0 mm
04:00 PM 85.2°F29.6°C 72.1°F22.3°C 65% 0.6 mph SW1.0 kmh SW 1.0 mph1.6 kmh 29.94 in1013.9 mb 0.00 in0.0 mm 0.00 in/hr0.0 mm/hr 0.00 in0.0 mm
04:10 PM 85.9°F29.9°C 72.8°F22.7°C 65% 0.5 mph SW0.8 kmh SW 1.0 mph1.6 kmh 29.94 in1013.9 mb 0.00 in0.0 mm 0.00 in/hr0.0 mm/hr 0.00 in0.0 mm
04:20 PM 85.6°F29.8°C 72.9°F22.7°C 66% 0.9 mph SSE1.4 kmh SSE 2.0 mph3.2 kmh 29.94 in1013.9 mb 0.00 in0.0 mm 0.00 in/hr0.0 mm/hr 0.00 in0.0 mm
04:30 PM 85.5°F29.7°C 73.3°F22.9°C 67% 0.5 mph SW0.8 kmh SW 1.0 mph1.6 kmh 29.94 in1013.9 mb 0.00 in0.0 mm 0.00 in/hr0.0 mm/hr 0.00 in0.0 mm
04:40 PM 85.9°F29.9°C 72.8°F22.7°C 65% 0.4 mph WSW0.6 kmh WSW 2.0 mph3.2 kmh 29.94 in1013.9 mb 0.00 in0.0 mm 0.00 in/hr0.0 mm/hr 0.00 in0.0 mm
04:50 PM 86.1°F30.1°C 73.4°F23.0°C 66% 0.8 mph SW1.3 kmh SW 2.0 mph3.2 kmh 29.93 in1013.5 mb 0.00 in0.0 mm 0.00 in/hr0.0 mm/hr 0.00 in0.0 mm
05:00 PM 86.8°F30.4°C 72.2°F22.3°C 62% 2.8 mph SW4.5 kmh SW 5.0 mph8.0 kmh 29.93 in1013.5 mb 0.00 in0.0 mm 0.00 in/hr0.0 mm/hr 0.00 in0.0 mm
05:10 PM 86.2°F30.1°C 72.1°F22.3°C 63% 1.0 mph E1.6 kmh E 2.0 mph3.2 kmh 29.93 in1013.5 mb 0.00 in0.0 mm 0.00 in/hr0.0 mm/hr 0.00 in0.0 mm
05:20 PM 86.5°F30.3°C 73.3°F22.9°C 65% 0.5 mph SW0.8 kmh SW 4.0 mph6.4 kmh 29.93 in1013.5 mb 0.00 in0.0 mm 0.00 in/hr0.0 mm/hr 0.00 in0.0 mm
05:30 PM 86.8°F30.4°C 73.6°F23.1°C 65% 0.6 mph SSW1.0 kmh SSW 2.0 mph3.2 kmh 29.93 in1013.5 mb 0.00 in0.0 mm 0.00 in/hr0.0 mm/hr 0.00 in0.0 mm
05:40 PM 85.4°F29.7°C 74.1°F23.4°C 69% 1.3 mph E2.1 kmh E 2.0 mph3.2 kmh 29.93 in1013.5 mb 0.00 in0.0 mm 0.00 in/hr0.0 mm/hr 0.00 in0.0 mm
05:50 PM 85.3°F29.6°C 73.9°F23.3°C 69% 1.9 mph W3.1 kmh W 4.0 mph6.4 kmh 29.93 in1013.5 mb 0.00 in0.0 mm 0.00 in/hr0.0 mm/hr 0.00 in0.0 mm
06:00 PM 84.4°F29.1°C 73.9°F23.3°C 71% 3.8 mph WSW6.1 kmh WSW 7.0 mph11.3 kmh 29.93 in1013.5 mb 0.00 in0.0 mm 0.00 in/hr0.0 mm/hr 0.00 in0.0 mm
06:10 PM 82.9°F28.3°C 73.3°F22.9°C 73% 2.0 mph WSW3.2 kmh WSW 3.0 mph4.8 kmh 29.93 in1013.5 mb 0.00 in0.0 mm 0.00 in/hr0.0 mm/hr 0.00 in0.0 mm
06:20 PM 81.3°F27.4°C 73.0°F22.8°C 76% 0.1 mph WNW0.2 kmh WNW 2.0 mph3.2 kmh 29.93 in1013.5 mb 0.00 in0.0 mm 0.00 in/hr0.0 mm/hr 0.00 in0.0 mm
06:30 PM 80.4°F26.9°C 72.1°F22.3°C 76% 0.6 mph SE1.0 kmh SE 1.0 mph1.6 kmh 29.93 in1013.5 mb 0.00 in0.0 mm 0.00 in/hr0.0 mm/hr 0.00 in0.0 mm
06:40 PM 80.1°F26.7°C 72.2°F22.3°C 77% 0.2 mph WNW0.3 kmh WNW 2.0 mph3.2 kmh 29.92 in1013.2 mb 0.00 in0.0 mm 0.00 in/hr0.0 mm/hr 0.00 in0.0 mm
06:50 PM 80.0°F26.7°C 72.9°F22.7°C 79% Calm Calm 1.0 mph1.6 kmh 29.92 in1013.2 mb 0.00 in0.0 mm 0.00 in/hr0.0 mm/hr 0.00 in0.0 mm
07:00 PM 79.9°F26.6°C 73.2°F22.9°C 80% Calm Calm -- 29.92 in1013.2 mb 0.00 in0.0 mm 0.00 in/hr0.0 mm/hr 0.00 in0.0 mm
07:10 PM 79.6°F26.4°C 73.3°F22.9°C 81% 0.2 mph SSW0.3 kmh SSW -- 29.92 in1013.2 mb 0.00 in0.0 mm 0.00 in/hr0.0 mm/hr 0.00 in0.0 mm
07:20 PM 79.2°F26.2°C 73.6°F23.1°C 83% 0.1 mph SW0.2 kmh SW -- 29.93 in1013.5 mb 0.00 in0.0 mm 0.00 in/hr0.0 mm/hr 0.00 in0.0 mm
07:30 PM 78.8°F26.0°C 73.6°F23.1°C 84% 0.5 mph SW0.8 kmh SW 2.0 mph3.2 kmh 29.93 in1013.5 mb 0.00 in0.0 mm 0.00 in/hr0.0 mm/hr 0.00 in0.0 mm
07:40 PM 78.5°F25.8°C 73.6°F23.1°C 85% 0.5 mph SW0.8 kmh SW 3.0 mph4.8 kmh 29.93 in1013.5 mb 0.00 in0.0 mm 0.00 in/hr0.0 mm/hr 0.00 in0.0 mm
07:50 PM 78.1°F25.6°C 73.5°F23.1°C 86% 1.0 mph WSW1.6 kmh WSW 2.0 mph3.2 kmh 29.93 in1013.5 mb 0.00 in0.0 mm 0.00 in/hr0.0 mm/hr 0.00 in0.0 mm
08:00 PM 77.8°F25.4°C 73.6°F23.1°C 87% 0.5 mph SW0.8 kmh SW 1.0 mph1.6 kmh 29.94 in1013.9 mb 0.00 in0.0 mm 0.00 in/hr0.0 mm/hr 0.00 in0.0 mm
08:10 PM 77.5°F25.3°C 73.7°F23.2°C 88% 0.4 mph SSW0.6 kmh SSW 1.0 mph1.6 kmh 29.94 in1013.9 mb 0.00 in0.0 mm 0.00 in/hr0.0 mm/hr 0.00 in0.0 mm
08:20 PM 77.2°F25.1°C 73.4°F23.0°C 88% 0.4 mph W0.6 kmh W 4.0 mph6.4 kmh 29.94 in1013.9 mb 0.00 in0.0 mm 0.00 in/hr0.0 mm/hr 0.00 in0.0 mm
08:30 PM 77.1°F25.1°C 73.6°F23.1°C 89% 0.3 mph SE0.5 kmh SE 1.0 mph1.6 kmh 29.94 in1013.9 mb 0.00 in0.0 mm 0.00 in/hr0.0 mm/hr 0.00 in0.0 mm
08:40 PM 77.0°F25.0°C 73.5°F23.1°C 89% 0.1 mph SSW0.2 kmh SSW 1.0 mph1.6 kmh 29.94 in1013.9 mb 0.00 in0.0 mm 0.00 in/hr0.0 mm/hr 0.00 in0.0 mm
08:50 PM 76.7°F24.8°C 73.3°F22.9°C 89% 0.4 mph SSE0.6 kmh SSE 2.0 mph3.2 kmh 29.94 in1013.9 mb 0.00 in0.0 mm 0.00 in/hr0.0 mm/hr 0.00 in0.0 mm
09:00 PM 76.6°F24.8°C 73.1°F22.8°C 89% 0.3 mph WSW0.5 kmh WSW 1.0 mph1.6 kmh 29.94 in1013.9 mb 0.00 in0.0 mm 0.00 in/hr0.0 mm/hr 0.00 in0.0 mm
09:10 PM 76.5°F24.7°C 73.0°F22.8°C 89% 0.6 mph WSW1.0 kmh WSW 4.0 mph6.4 kmh 29.94 in1013.9 mb 0.00 in0.0 mm 0.00 in/hr0.0 mm/hr 0.00 in0.0 mm
09:20 PM 76.4°F24.7°C 73.2°F22.9°C 90% 0.8 mph SSW1.3 kmh SSW 3.0 mph4.8 kmh 29.95 in1014.2 mb 0.00 in0.0 mm 0.00 in/hr0.0 mm/hr 0.00 in0.0 mm
09:30 PM 76.4°F24.7°C 73.2°F22.9°C 90% 0.9 mph NW1.4 kmh NW 1.0 mph1.6 kmh 29.95 in1014.2 mb 0.00 in0.0 mm 0.00 in/hr0.0 mm/hr 0.00 in0.0 mm
09:40 PM 76.6°F24.8°C 73.2°F22.9°C 89% 0.2 mph SW0.3 kmh SW 1.0 mph1.6 kmh 29.95 in1014.2 mb 0.00 in0.0 mm 0.00 in/hr0.0 mm/hr 0.00 in0.0 mm
09:50 PM 76.6°F24.8°C 73.1°F22.8°C 89% 0.1 mph SW0.2 kmh SW 1.0 mph1.6 kmh 29.94 in1013.9 mb 0.00 in0.0 mm 0.00 in/hr0.0 mm/hr 0.00 in0.0 mm
10:00 PM 76.4°F24.7°C 72.9°F22.7°C 89% 0.5 mph SE0.8 kmh SE 2.0 mph3.2 kmh 29.95 in1014.2 mb 0.00 in0.0 mm 0.00 in/hr0.0 mm/hr 0.00 in0.0 mm
10:10 PM 76.6°F24.8°C 73.1°F22.8°C 89% 0.6 mph SW1.0 kmh SW 2.0 mph3.2 kmh 29.95 in1014.2 mb 0.00 in0.0 mm 0.00 in/hr0.0 mm/hr 0.00 in0.0 mm
10:20 PM 76.9°F24.9°C 73.1°F22.8°C 88% 0.6 mph SSW1.0 kmh SSW 3.0 mph4.8 kmh 29.95 in1014.2 mb 0.00 in0.0 mm 0.00 in/hr0.0 mm/hr 0.00 in0.0 mm
10:30 PM 77.1°F25.1°C 73.3°F22.9°C 88% Calm Calm -- 29.95 in1014.2 mb 0.00 in0.0 mm 0.00 in/hr0.0 mm/hr 0.00 in0.0 mm
10:40 PM 76.9°F24.9°C 73.1°F22.8°C 88% 0.8 mph SSW1.3 kmh SSW 2.0 mph3.2 kmh 29.95 in1014.2 mb 0.00 in0.0 mm 0.00 in/hr0.0 mm/hr 0.00 in0.0 mm
10:50 PM 77.3°F25.2°C 73.1°F22.8°C 87% 0.8 mph S1.3 kmh S 4.0 mph6.4 kmh 29.95 in1014.2 mb 0.00 in0.0 mm 0.00 in/hr0.0 mm/hr 0.00 in0.0 mm
11:00 PM 77.6°F25.3°C 73.1°F22.8°C 86% 0.4 mph SE0.6 kmh SE 2.0 mph3.2 kmh 29.95 in1014.2 mb 0.00 in0.0 mm 0.00 in/hr0.0 mm/hr 0.00 in0.0 mm
11:10 PM 77.6°F25.3°C 73.0°F22.8°C 86% Calm Calm -- 29.95 in1014.2 mb 0.00 in0.0 mm 0.00 in/hr0.0 mm/hr 0.00 in0.0 mm
11:20 PM 77.4°F25.2°C 72.9°F22.7°C 86% Calm Calm 1.0 mph1.6 kmh 29.95 in1014.2 mb 0.00 in0.0 mm 0.00 in/hr0.0 mm/hr 0.00 in0.0 mm
11:30 PM 77.1°F25.1°C 72.9°F22.7°C 87% Calm Calm -- 29.95 in1014.2 mb 0.00 in0.0 mm 0.00 in/hr0.0 mm/hr 0.00 in0.0 mm
11:40 PM 77.0°F25.0°C 72.8°F22.7°C 87% Calm Calm -- 29.95 in1014.2 mb 0.00 in0.0 mm 0.00 in/hr0.0 mm/hr 0.00 in0.0 mm
11:50 PM 77.1°F25.1°C 73.0°F22.8°C 87% 0.4 mph SW0.6 kmh SW 2.0 mph3.2 kmh 29.94 in1013.9 mb 0.00 in0.0 mm 0.00 in/hr0.0 mm/hr 0.00 in0.0 mm